sensor_id;sensor_type;location;lat;lon;timestamp;P1;durP1;ratioP1;P2;durP2;ratioP2
33716;SDS011;20046;50.746;7.072;2022-09-12T00:01:06;35.05;;;20.70;;
33716;SDS011;20046;50.746;7.072;2022-09-12T00:03:34;31.92;;;21.80;;
33716;SDS011;20046;50.746;7.072;2022-09-12T00:06:00;31.48;;;20.95;;
33716;SDS011;20046;50.746;7.072;2022-09-12T00:08:30;31.80;;;21.27;;
33716;SDS011;20046;50.746;7.072;2022-09-12T00:10:56;37.45;;;23.40;;
33716;SDS011;20046;50.746;7.072;2022-09-12T00:13:22;35.33;;;23.67;;
33716;SDS011;20046;50.746;7.072;2022-09-12T00:15:47;29.10;;;20.98;;
33716;SDS011;20046;50.746;7.072;2022-09-12T00:18:13;39.10;;;22.60;;
33716;SDS011;20046;50.746;7.072;2022-09-12T00:20:41;33.47;;;21.65;;
33716;SDS011;20046;50.746;7.072;2022-09-12T00:23:11;33.38;;;20.40;;
33716;SDS011;20046;50.746;7.072;2022-09-12T00:25:43;30.83;;;21.23;;
33716;SDS011;20046;50.746;7.072;2022-09-12T00:28:10;38.50;;;23.08;;
33716;SDS011;20046;50.746;7.072;2022-09-12T00:30:41;36.25;;;23.23;;
33716;SDS011;20046;50.746;7.072;2022-09-12T00:33:07;41.83;;;22.23;;
33716;SDS011;20046;50.746;7.072;2022-09-12T00:35:34;42.70;;;22.80;;
33716;SDS011;20046;50.746;7.072;2022-09-12T00:38:04;37.05;;;23.33;;
33716;SDS011;20046;50.746;7.072;2022-09-12T00:40:30;34.13;;;22.05;;
33716;SDS011;20046;50.746;7.072;2022-09-12T00:42:55;37.10;;;22.63;;
33716;SDS011;20046;50.746;7.072;2022-09-12T00:45:26;35.22;;;22.00;;
33716;SDS011;20046;50.746;7.072;2022-09-12T00:47:54;37.72;;;21.98;;
33716;SDS011;20046;50.746;7.072;2022-09-12T00:50:22;36.60;;;21.52;;
33716;SDS011;20046;50.746;7.072;2022-09-12T00:52:52;33.72;;;20.80;;
33716;SDS011;20046;50.746;7.072;2022-09-12T00:55:23;39.17;;;22.45;;
33716;SDS011;20046;50.746;7.072;2022-09-12T00:57:55;38.55;;;22.55;;
33716;SDS011;20046;50.746;7.072;2022-09-12T01:00:26;37.03;;;23.33;;
33716;SDS011;20046;50.746;7.072;2022-09-12T01:02:54;41.28;;;23.17;;
33716;SDS011;20046;50.746;7.072;2022-09-12T01:05:24;32.63;;;21.80;;
33716;SDS011;20046;50.746;7.072;2022-09-12T01:07:51;49.38;;;22.80;;
33716;SDS011;20046;50.746;7.072;2022-09-12T01:10:19;33.83;;;21.70;;
33716;SDS011;20046;50.746;7.072;2022-09-12T01:12:45;38.80;;;22.13;;
33716;SDS011;20046;50.746;7.072;2022-09-12T01:15:12;38.25;;;23.17;;
33716;SDS011;20046;50.746;7.072;2022-09-12T01:17:41;36.20;;;22.45;;
33716;SDS011;20046;50.746;7.072;2022-09-12T01:23:37;36.55;;;22.00;;
33716;SDS011;20046;50.746;7.072;2022-09-12T01:26:48;36.72;;;21.92;;
33716;SDS011;20046;50.746;7.072;2022-09-12T01:35:22;33.72;;;22.55;;
33716;SDS011;20046;50.746;7.072;2022-09-12T01:40:44;41.70;;;23.38;;
33716;SDS011;20046;50.746;7.072;2022-09-12T01:46:14;41.55;;;23.30;;
33716;SDS011;20046;50.746;7.072;2022-09-12T01:48:44;41.75;;;23.48;;
33716;SDS011;20046;50.746;7.072;2022-09-12T01:51:20;37.95;;;22.60;;
33716;SDS011;20046;50.746;7.072;2022-09-12T01:54:02;42.00;;;23.83;;
33716;SDS011;20046;50.746;7.072;2022-09-12T01:56:44;41.92;;;25.35;;
33716;SDS011;20046;50.746;7.072;2022-09-12T01:59:25;39.97;;;24.67;;
33716;SDS011;20046;50.746;7.072;2022-09-12T02:01:58;40.80;;;24.25;;
33716;SDS011;20046;50.746;7.072;2022-09-12T02:10:12;38.03;;;23.48;;
33716;SDS011;20046;50.746;7.072;2022-09-12T02:15:43;40.05;;;22.90;;
33716;SDS011;20046;50.746;7.072;2022-09-12T02:18:14;44.30;;;24.88;;
33716;SDS011;20046;50.746;7.072;2022-09-12T02:20:42;44.22;;;24.50;;
33716;SDS011;20046;50.746;7.072;2022-09-12T02:23:12;39.35;;;22.80;;
33716;SDS011;20046;50.746;7.072;2022-09-12T02:25:45;41.65;;;24.33;;
33716;SDS011;20046;50.746;7.072;2022-09-12T02:28:14;41.13;;;22.73;;
33716;SDS011;20046;50.746;7.072;2022-09-12T02:33:39;44.55;;;24.17;;
33716;SDS011;20046;50.746;7.072;2022-09-12T02:36:42;42.50;;;24.15;;
33716;SDS011;20046;50.746;7.072;2022-09-12T02:39:08;44.95;;;24.88;;
33716;SDS011;20046;50.746;7.072;2022-09-12T02:41:34;40.45;;;23.73;;
33716;SDS011;20046;50.746;7.072;2022-09-12T02:44:00;41.65;;;24.75;;
33716;SDS011;20046;50.746;7.072;2022-09-12T02:46:30;46.05;;;25.23;;
33716;SDS011;20046;50.746;7.072;2022-09-12T02:49:02;44.72;;;24.10;;
33716;SDS011;20046;50.746;7.072;2022-09-12T02:51:28;47.75;;;26.05;;
33716;SDS011;20046;50.746;7.072;2022-09-12T02:53:54;48.40;;;27.40;;
33716;SDS011;20046;50.746;7.072;2022-09-12T02:56:25;49.28;;;26.73;;
33716;SDS011;20046;50.746;7.072;2022-09-12T02:58:53;50.22;;;26.85;;
33716;SDS011;20046;50.746;7.072;2022-09-12T03:04:18;50.85;;;27.00;;
33716;SDS011;20046;50.746;7.072;2022-09-12T03:06:58;56.05;;;26.23;;
33716;SDS011;20046;50.746;7.072;2022-09-12T03:09:45;51.67;;;25.88;;
33716;SDS011;20046;50.746;7.072;2022-09-12T03:23:17;46.00;;;24.88;;
33716;SDS011;20046;50.746;7.072;2022-09-12T03:26:15;50.33;;;25.98;;
33716;SDS011;20046;50.746;7.072;2022-09-12T03:28:45;50.33;;;25.98;;
33716;SDS011;20046;50.746;7.072;2022-09-12T03:31:16;47.63;;;25.65;;
33716;SDS011;20046;50.746;7.072;2022-09-12T03:33:42;44.03;;;25.42;;
33716;SDS011;20046;50.746;7.072;2022-09-12T03:36:30;46.33;;;24.95;;
33716;SDS011;20046;50.746;7.072;2022-09-12T03:38:55;49.08;;;25.77;;
33716;SDS011;20046;50.746;7.072;2022-09-12T03:41:21;41.70;;;23.75;;
33716;SDS011;20046;50.746;7.072;2022-09-12T03:43:47;47.80;;;23.67;;
33716;SDS011;20046;50.746;7.072;2022-09-12T03:46:12;44.00;;;24.38;;
33716;SDS011;20046;50.746;7.072;2022-09-12T03:48:38;41.55;;;22.67;;
33716;SDS011;20046;50.746;7.072;2022-09-12T03:51:06;46.20;;;24.85;;
33716;SDS011;20046;50.746;7.072;2022-09-12T03:53:33;41.35;;;24.35;;
33716;SDS011;20046;50.746;7.072;2022-09-12T03:55:59;42.25;;;24.25;;
33716;SDS011;20046;50.746;7.072;2022-09-12T03:58:29;38.15;;;23.35;;
33716;SDS011;20046;50.746;7.072;2022-09-12T04:00:55;47.55;;;25.08;;
33716;SDS011;20046;50.746;7.072;2022-09-12T04:03:21;51.45;;;25.35;;
33716;SDS011;20046;50.746;7.072;2022-09-12T04:05:46;42.45;;;24.60;;
33716;SDS011;20046;50.746;7.072;2022-09-12T04:08:12;46.55;;;25.90;;
33716;SDS011;20046;50.746;7.072;2022-09-12T04:10:38;51.55;;;26.35;;
33716;SDS011;20046;50.746;7.072;2022-09-12T04:13:04;49.00;;;26.40;;
33716;SDS011;20046;50.746;7.072;2022-09-12T04:15:30;49.50;;;25.20;;
33716;SDS011;20046;50.746;7.072;2022-09-12T04:17:56;51.70;;;27.67;;
33716;SDS011;20046;50.746;7.072;2022-09-12T04:20:21;49.28;;;25.05;;
33716;SDS011;20046;50.746;7.072;2022-09-12T04:22:47;44.55;;;24.92;;
33716;SDS011;20046;50.746;7.072;2022-09-12T04:25:13;43.63;;;25.00;;
33716;SDS011;20046;50.746;7.072;2022-09-12T04:27:39;44.90;;;25.50;;
33716;SDS011;20046;50.746;7.072;2022-09-12T04:30:05;48.83;;;24.38;;
33716;SDS011;20046;50.746;7.072;2022-09-12T04:32:31;44.40;;;25.45;;
33716;SDS011;20046;50.746;7.072;2022-09-12T04:34:57;51.13;;;24.23;;
33716;SDS011;20046;50.746;7.072;2022-09-12T04:37:22;52.15;;;25.75;;
33716;SDS011;20046;50.746;7.072;2022-09-12T04:39:48;55.83;;;28.58;;
33716;SDS011;20046;50.746;7.072;2022-09-12T04:42:14;44.15;;;25.55;;
33716;SDS011;20046;50.746;7.072;2022-09-12T04:44:40;47.05;;;24.70;;
33716;SDS011;20046;50.746;7.072;2022-09-12T04:47:06;53.80;;;27.08;;
33716;SDS011;20046;50.746;7.072;2022-09-12T04:49:32;44.35;;;25.38;;
33716;SDS011;20046;50.746;7.072;2022-09-12T04:51:57;49.95;;;27.02;;
33716;SDS011;20046;50.746;7.072;2022-09-12T04:54:23;51.40;;;26.40;;
33716;SDS011;20046;50.746;7.072;2022-09-12T04:56:49;71.97;;;33.53;;
33716;SDS011;20046;50.746;7.072;2022-09-12T04:59:17;73.95;;;34.92;;
33716;SDS011;20046;50.746;7.072;2022-09-12T05:01:44;73.22;;;34.83;;
33716;SDS011;20046;50.746;7.072;2022-09-12T05:04:10;62.58;;;31.30;;
33716;SDS011;20046;50.746;7.072;2022-09-12T05:06:37;72.50;;;34.25;;
33716;SDS011;20046;50.746;7.072;2022-09-12T05:09:04;81.78;;;35.58;;
33716;SDS011;20046;50.746;7.072;2022-09-12T05:11:32;80.00;;;36.80;;
33716;SDS011;20046;50.746;7.072;2022-09-12T05:14:00;68.78;;;33.88;;
33716;SDS011;20046;50.746;7.072;2022-09-12T05:16:26;80.25;;;36.70;;
33716;SDS011;20046;50.746;7.072;2022-09-12T05:18:52;81.00;;;32.33;;
33716;SDS011;20046;50.746;7.072;2022-09-12T05:21:19;81.28;;;31.92;;
33716;SDS011;20046;50.746;7.072;2022-09-12T05:23:49;74.68;;;33.80;;
33716;SDS011;20046;50.746;7.072;2022-09-12T05:26:20;80.47;;;37.20;;
33716;SDS011;20046;50.746;7.072;2022-09-12T05:28:47;85.53;;;37.10;;
33716;SDS011;20046;50.746;7.072;2022-09-12T05:31:15;98.57;;;38.60;;
33716;SDS011;20046;50.746;7.072;2022-09-12T05:33:47;82.93;;;37.72;;
33716;SDS011;20046;50.746;7.072;2022-09-12T05:36:15;91.43;;;37.55;;
33716;SDS011;20046;50.746;7.072;2022-09-12T05:38:42;82.68;;;35.90;;
33716;SDS011;20046;50.746;7.072;2022-09-12T05:43:36;82.57;;;39.20;;
33716;SDS011;20046;50.746;7.072;2022-09-12T05:46:04;83.75;;;35.83;;
33716;SDS011;20046;50.746;7.072;2022-09-12T05:48:37;85.13;;;36.92;;
33716;SDS011;20046;50.746;7.072;2022-09-12T05:51:05;74.43;;;34.60;;
33716;SDS011;20046;50.746;7.072;2022-09-12T05:53:33;77.03;;;36.00;;
33716;SDS011;20046;50.746;7.072;2022-09-12T05:56:10;68.32;;;34.05;;
33716;SDS011;20046;50.746;7.072;2022-09-12T05:58:38;68.28;;;33.88;;
33716;SDS011;20046;50.746;7.072;2022-09-12T06:01:06;66.35;;;33.22;;
33716;SDS011;20046;50.746;7.072;2022-09-12T06:03:35;66.35;;;33.55;;
33716;SDS011;20046;50.746;7.072;2022-09-12T06:06:04;63.00;;;32.45;;
33716;SDS011;20046;50.746;7.072;2022-09-12T06:08:31;66.85;;;31.27;;
33716;SDS011;20046;50.746;7.072;2022-09-12T06:10:58;54.60;;;29.83;;
33716;SDS011;20046;50.746;7.072;2022-09-12T06:13:25;58.33;;;30.50;;
33716;SDS011;20046;50.746;7.072;2022-09-12T06:15:51;51.97;;;28.88;;
33716;SDS011;20046;50.746;7.072;2022-09-12T06:18:18;57.30;;;28.98;;
33716;SDS011;20046;50.746;7.072;2022-09-12T06:20:44;52.78;;;27.83;;
33716;SDS011;20046;50.746;7.072;2022-09-12T06:23:10;53.05;;;28.08;;
33716;SDS011;20046;50.746;7.072;2022-09-12T06:25:36;53.67;;;27.73;;
33716;SDS011;20046;50.746;7.072;2022-09-12T06:28:02;52.10;;;27.35;;
33716;SDS011;20046;50.746;7.072;2022-09-12T06:30:28;50.13;;;25.90;;
33716;SDS011;20046;50.746;7.072;2022-09-12T06:32:54;50.70;;;26.30;;
33716;SDS011;20046;50.746;7.072;2022-09-12T06:35:21;50.95;;;27.10;;
33716;SDS011;20046;50.746;7.072;2022-09-12T06:37:47;51.10;;;26.58;;
33716;SDS011;20046;50.746;7.072;2022-09-12T06:40:13;49.55;;;24.92;;
33716;SDS011;20046;50.746;7.072;2022-09-12T06:42:39;47.42;;;24.92;;
33716;SDS011;20046;50.746;7.072;2022-09-12T06:45:04;51.20;;;25.15;;
33716;SDS011;20046;50.746;7.072;2022-09-12T06:47:30;47.78;;;25.90;;
33716;SDS011;20046;50.746;7.072;2022-09-12T06:49:56;44.40;;;24.95;;
33716;SDS011;20046;50.746;7.072;2022-09-12T06:52:22;47.20;;;24.35;;
33716;SDS011;20046;50.746;7.072;2022-09-12T06:54:48;45.42;;;24.48;;
33716;SDS011;20046;50.746;7.072;2022-09-12T06:57:13;50.25;;;26.98;;
33716;SDS011;20046;50.746;7.072;2022-09-12T06:59:39;44.35;;;24.15;;
33716;SDS011;20046;50.746;7.072;2022-09-12T07:02:05;45.95;;;24.38;;
33716;SDS011;20046;50.746;7.072;2022-09-12T07:04:30;45.63;;;25.58;;
33716;SDS011;20046;50.746;7.072;2022-09-12T07:06:57;45.25;;;25.17;;
33716;SDS011;20046;50.746;7.072;2022-09-12T07:09:23;45.83;;;24.55;;
33716;SDS011;20046;50.746;7.072;2022-09-12T07:11:50;45.90;;;23.83;;
33716;SDS011;20046;50.746;7.072;2022-09-12T07:14:15;44.47;;;23.85;;
33716;SDS011;20046;50.746;7.072;2022-09-12T07:16:41;44.97;;;24.35;;
33716;SDS011;20046;50.746;7.072;2022-09-12T07:19:07;39.50;;;22.65;;
33716;SDS011;20046;50.746;7.072;2022-09-12T07:21:33;38.60;;;23.20;;
33716;SDS011;20046;50.746;7.072;2022-09-12T07:24:04;41.70;;;23.20;;
33716;SDS011;20046;50.746;7.072;2022-09-12T07:26:30;45.35;;;22.92;;
33716;SDS011;20046;50.746;7.072;2022-09-12T07:28:57;38.83;;;21.38;;
33716;SDS011;20046;50.746;7.072;2022-09-12T07:31:23;37.78;;;22.90;;
33716;SDS011;20046;50.746;7.072;2022-09-12T07:33:50;34.40;;;20.15;;
33716;SDS011;20046;50.746;7.072;2022-09-12T07:36:17;38.78;;;19.92;;
33716;SDS011;20046;50.746;7.072;2022-09-12T07:38:44;37.03;;;20.58;;
33716;SDS011;20046;50.746;7.072;2022-09-12T07:43:42;30.77;;;19.35;;
33716;SDS011;20046;50.746;7.072;2022-09-12T07:46:08;33.92;;;20.67;;
33716;SDS011;20046;50.746;7.072;2022-09-12T07:48:34;31.10;;;18.20;;
33716;SDS011;20046;50.746;7.072;2022-09-12T07:51:01;30.80;;;18.77;;
33716;SDS011;20046;50.746;7.072;2022-09-12T07:53:40;35.80;;;20.45;;
33716;SDS011;20046;50.746;7.072;2022-09-12T07:56:08;32.45;;;19.65;;
33716;SDS011;20046;50.746;7.072;2022-09-12T07:58:35;26.98;;;17.40;;
33716;SDS011;20046;50.746;7.072;2022-09-12T08:01:06;31.17;;;17.77;;
33716;SDS011;20046;50.746;7.072;2022-09-12T08:03:39;28.20;;;19.35;;
33716;SDS011;20046;50.746;7.072;2022-09-12T08:06:07;29.73;;;18.23;;
33716;SDS011;20046;50.746;7.072;2022-09-12T08:08:34;26.88;;;17.85;;
33716;SDS011;20046;50.746;7.072;2022-09-12T08:11:00;28.33;;;17.77;;
33716;SDS011;20046;50.746;7.072;2022-09-12T08:13:30;30.70;;;17.77;;
33716;SDS011;20046;50.746;7.072;2022-09-12T08:15:57;26.35;;;17.35;;
33716;SDS011;20046;50.746;7.072;2022-09-12T08:18:24;24.60;;;16.17;;
33716;SDS011;20046;50.746;7.072;2022-09-12T08:23:23;28.75;;;17.33;;
33716;SDS011;20046;50.746;7.072;2022-09-12T08:25:50;24.42;;;16.10;;
33716;SDS011;20046;50.746;7.072;2022-09-12T08:28:19;28.00;;;16.77;;
33716;SDS011;20046;50.746;7.072;2022-09-12T08:30:44;26.02;;;15.98;;
33716;SDS011;20046;50.746;7.072;2022-09-12T08:33:10;26.17;;;16.15;;
33716;SDS011;20046;50.746;7.072;2022-09-12T08:35:36;26.95;;;15.20;;
33716;SDS011;20046;50.746;7.072;2022-09-12T08:38:01;22.55;;;14.48;;
33716;SDS011;20046;50.746;7.072;2022-09-12T08:40:27;22.25;;;13.90;;
33716;SDS011;20046;50.746;7.072;2022-09-12T08:42:58;18.42;;;12.60;;
33716;SDS011;20046;50.746;7.072;2022-09-12T08:45:39;19.02;;;11.95;;
33716;SDS011;20046;50.746;7.072;2022-09-12T08:48:12;17.48;;;12.82;;
33716;SDS011;20046;50.746;7.072;2022-09-12T08:50:38;19.23;;;11.80;;
33716;SDS011;20046;50.746;7.072;2022-09-12T08:53:12;17.95;;;12.25;;
33716;SDS011;20046;50.746;7.072;2022-09-12T08:55:42;15.15;;;10.57;;
33716;SDS011;20046;50.746;7.072;2022-09-12T08:58:20;14.57;;;10.32;;
33716;SDS011;20046;50.746;7.072;2022-09-12T09:01:10;15.38;;;11.00;;
33716;SDS011;20046;50.746;7.072;2022-09-12T09:08:54;14.00;;;10.10;;
33716;SDS011;20046;50.746;7.072;2022-09-12T09:14:55;14.82;;;10.43;;
33716;SDS011;20046;50.746;7.072;2022-09-12T09:17:52;14.48;;;8.73;;
33716;SDS011;20046;50.746;7.072;2022-09-12T09:20:42;13.02;;;7.85;;
33716;SDS011;20046;50.746;7.072;2022-09-12T09:25:55;13.73;;;8.50;;
33716;SDS011;20046;50.746;7.072;2022-09-12T09:28:30;14.18;;;8.38;;
33716;SDS011;20046;50.746;7.072;2022-09-12T09:31:01;12.18;;;8.20;;
33716;SDS011;20046;50.746;7.072;2022-09-12T09:33:30;11.65;;;8.48;;
33716;SDS011;20046;50.746;7.072;2022-09-12T09:44:05;9.98;;;7.53;;
33716;SDS011;20046;50.746;7.072;2022-09-12T09:46:30;9.52;;;7.72;;
33716;SDS011;20046;50.746;7.072;2022-09-12T09:48:57;12.35;;;7.55;;
33716;SDS011;20046;50.746;7.072;2022-09-12T09:51:28;11.35;;;7.82;;
33716;SDS011;20046;50.746;7.072;2022-09-12T09:54:22;9.98;;;7.13;;
33716;SDS011;20046;50.746;7.072;2022-09-12T09:56:50;9.75;;;6.93;;
33716;SDS011;20046;50.746;7.072;2022-09-12T10:01:59;7.78;;;6.35;;
33716;SDS011;20046;50.746;7.072;2022-09-12T10:04:34;11.63;;;6.13;;
33716;SDS011;20046;50.746;7.072;2022-09-12T10:07:03;12.85;;;5.97;;
33716;SDS011;20046;50.746;7.072;2022-09-12T10:09:33;8.77;;;5.50;;
33716;SDS011;20046;50.746;7.072;2022-09-12T10:12:01;8.13;;;5.85;;
33716;SDS011;20046;50.746;7.072;2022-09-12T10:14:55;10.15;;;5.93;;
33716;SDS011;20046;50.746;7.072;2022-09-12T10:17:38;11.60;;;5.55;;
33716;SDS011;20046;50.746;7.072;2022-09-12T10:22:57;6.50;;;5.45;;
33716;SDS011;20046;50.746;7.072;2022-09-12T10:25:24;8.13;;;5.78;;
33716;SDS011;20046;50.746;7.072;2022-09-12T10:27:52;7.22;;;5.25;;
33716;SDS011;20046;50.746;7.072;2022-09-12T10:30:22;8.82;;;5.43;;
33716;SDS011;20046;50.746;7.072;2022-09-12T10:32:51;8.13;;;5.65;;
33716;SDS011;20046;50.746;7.072;2022-09-12T10:40:24;10.05;;;5.30;;
33716;SDS011;20046;50.746;7.072;2022-09-12T10:42:58;8.50;;;5.60;;
33716;SDS011;20046;50.746;7.072;2022-09-12T10:47:53;9.63;;;5.30;;
33716;SDS011;20046;50.746;7.072;2022-09-12T10:50:26;9.27;;;4.90;;
33716;SDS011;20046;50.746;7.072;2022-09-12T10:56:33;8.35;;;4.88;;
33716;SDS011;20046;50.746;7.072;2022-09-12T10:59:01;7.80;;;4.43;;
33716;SDS011;20046;50.746;7.072;2022-09-12T11:01:41;6.55;;;4.85;;
33716;SDS011;20046;50.746;7.072;2022-09-12T11:04:19;7.70;;;4.70;;
33716;SDS011;20046;50.746;7.072;2022-09-12T11:07:13;7.93;;;5.30;;
33716;SDS011;20046;50.746;7.072;2022-09-12T11:12:46;7.45;;;5.15;;
33716;SDS011;20046;50.746;7.072;2022-09-12T11:15:29;5.60;;;4.35;;
33716;SDS011;20046;50.746;7.072;2022-09-12T11:40:00;4.82;;;3.72;;
33716;SDS011;20046;50.746;7.072;2022-09-12T11:42:45;4.03;;;3.00;;
33716;SDS011;20046;50.746;7.072;2022-09-12T11:45:21;3.42;;;2.92;;
33716;SDS011;20046;50.746;7.072;2022-09-12T11:48:03;3.40;;;3.00;;
33716;SDS011;20046;50.746;7.072;2022-09-12T11:50:35;3.60;;;3.10;;
33716;SDS011;20046;50.746;7.072;2022-09-12T11:53:06;4.18;;;2.88;;
33716;SDS011;20046;50.746;7.072;2022-09-12T11:55:46;5.50;;;2.95;;
33716;SDS011;20046;50.746;7.072;2022-09-12T11:58:19;4.38;;;2.60;;
33716;SDS011;20046;50.746;7.072;2022-09-12T12:00:50;3.33;;;2.38;;
33716;SDS011;20046;50.746;7.072;2022-09-12T12:06:06;8.63;;;2.83;;
33716;SDS011;20046;50.746;7.072;2022-09-12T12:08:40;4.20;;;2.60;;
33716;SDS011;20046;50.746;7.072;2022-09-12T12:11:08;2.47;;;2.28;;
33716;SDS011;20046;50.746;7.072;2022-09-12T12:13:49;6.00;;;2.55;;
33716;SDS011;20046;50.746;7.072;2022-09-12T12:19:02;3.20;;;2.45;;
33716;SDS011;20046;50.746;7.072;2022-09-12T12:21:35;3.50;;;2.92;;
33716;SDS011;20046;50.746;7.072;2022-09-12T12:29:03;2.60;;;2.40;;
33716;SDS011;20046;50.746;7.072;2022-09-12T12:34:27;3.67;;;2.65;;
33716;SDS011;20046;50.746;7.072;2022-09-12T12:36:56;2.90;;;2.20;;
33716;SDS011;20046;50.746;7.072;2022-09-12T12:42:01;4.45;;;2.63;;
33716;SDS011;20046;50.746;7.072;2022-09-12T12:47:27;4.70;;;2.72;;
33716;SDS011;20046;50.746;7.072;2022-09-12T12:52:50;4.78;;;2.70;;
33716;SDS011;20046;50.746;7.072;2022-09-12T12:55:22;3.88;;;2.70;;
33716;SDS011;20046;50.746;7.072;2022-09-12T12:57:53;4.63;;;2.90;;
33716;SDS011;20046;50.746;7.072;2022-09-12T13:00:24;3.08;;;2.78;;
33716;SDS011;20046;50.746;7.072;2022-09-12T13:05:29;4.57;;;3.10;;
33716;SDS011;20046;50.746;7.072;2022-09-12T13:10:48;4.72;;;3.10;;
33716;SDS011;20046;50.746;7.072;2022-09-12T13:13:21;6.78;;;3.60;;
33716;SDS011;20046;50.746;7.072;2022-09-12T13:15:54;7.15;;;3.25;;
33716;SDS011;20046;50.746;7.072;2022-09-12T13:18:24;3.20;;;2.90;;
33716;SDS011;20046;50.746;7.072;2022-09-12T13:23:28;6.30;;;3.45;;
33716;SDS011;20046;50.746;7.072;2022-09-12T13:25:56;4.60;;;3.22;;
33716;SDS011;20046;50.746;7.072;2022-09-12T13:28:24;8.38;;;3.40;;
33716;SDS011;20046;50.746;7.072;2022-09-12T13:33:46;3.67;;;3.00;;
33716;SDS011;20046;50.746;7.072;2022-09-12T13:44:08;6.70;;;3.60;;
33716;SDS011;20046;50.746;7.072;2022-09-12T13:46:35;5.72;;;3.25;;
33716;SDS011;20046;50.746;7.072;2022-09-12T13:49:05;7.90;;;3.30;;
33716;SDS011;20046;50.746;7.072;2022-09-12T13:51:36;8.45;;;3.45;;
33716;SDS011;20046;50.746;7.072;2022-09-12T13:54:02;4.47;;;3.33;;
33716;SDS011;20046;50.746;7.072;2022-09-12T13:56:30;6.60;;;3.10;;
33716;SDS011;20046;50.746;7.072;2022-09-12T13:58:56;5.65;;;3.00;;
33716;SDS011;20046;50.746;7.072;2022-09-12T14:01:34;4.93;;;3.00;;
33716;SDS011;20046;50.746;7.072;2022-09-12T14:04:09;7.03;;;3.58;;
33716;SDS011;20046;50.746;7.072;2022-09-12T14:06:58;5.85;;;3.40;;
33716;SDS011;20046;50.746;7.072;2022-09-12T14:09:33;6.85;;;3.47;;
33716;SDS011;20046;50.746;7.072;2022-09-12T14:12:02;6.90;;;3.25;;
33716;SDS011;20046;50.746;7.072;2022-09-12T14:14:35;9.00;;;3.70;;
33716;SDS011;20046;50.746;7.072;2022-09-12T14:20:00;7.18;;;3.15;;
33716;SDS011;20046;50.746;7.072;2022-09-12T14:22:29;5.40;;;3.50;;
33716;SDS011;20046;50.746;7.072;2022-09-12T14:24:56;3.80;;;3.42;;
33716;SDS011;20046;50.746;7.072;2022-09-12T14:27:24;5.25;;;3.22;;
33716;SDS011;20046;50.746;7.072;2022-09-12T14:30:03;6.55;;;3.35;;
33716;SDS011;20046;50.746;7.072;2022-09-12T14:32:34;3.50;;;3.20;;
33716;SDS011;20046;50.746;7.072;2022-09-12T14:35:03;6.03;;;3.25;;
33716;SDS011;20046;50.746;7.072;2022-09-12T14:37:29;4.65;;;3.17;;
33716;SDS011;20046;50.746;7.072;2022-09-12T14:39:55;3.75;;;3.40;;
33716;SDS011;20046;50.746;7.072;2022-09-12T14:42:21;5.43;;;3.05;;
33716;SDS011;20046;50.746;7.072;2022-09-12T14:44:54;4.03;;;3.13;;
33716;SDS011;20046;50.746;7.072;2022-09-12T14:47:39;5.25;;;3.15;;
33716;SDS011;20046;50.746;7.072;2022-09-12T14:50:14;4.53;;;2.70;;
33716;SDS011;20046;50.746;7.072;2022-09-12T14:52:46;7.93;;;3.08;;
33716;SDS011;20046;50.746;7.072;2022-09-12T14:55:30;6.95;;;3.30;;
33716;SDS011;20046;50.746;7.072;2022-09-12T15:06:26;8.75;;;3.20;;
33716;SDS011;20046;50.746;7.072;2022-09-12T15:08:54;4.60;;;2.60;;
33716;SDS011;20046;50.746;7.072;2022-09-12T15:11:22;6.00;;;3.08;;
33716;SDS011;20046;50.746;7.072;2022-09-12T15:13:47;5.47;;;2.58;;
33716;SDS011;20046;50.746;7.072;2022-09-12T15:16:13;5.38;;;2.90;;
33716;SDS011;20046;50.746;7.072;2022-09-12T15:18:40;3.05;;;2.75;;
33716;SDS011;20046;50.746;7.072;2022-09-12T15:21:06;6.25;;;2.67;;
33716;SDS011;20046;50.746;7.072;2022-09-12T15:23:48;3.72;;;2.75;;
33716;SDS011;20046;50.746;7.072;2022-09-12T15:26:16;6.03;;;2.75;;
33716;SDS011;20046;50.746;7.072;2022-09-12T15:28:43;3.40;;;2.50;;
33716;SDS011;20046;50.746;7.072;2022-09-12T15:31:14;5.10;;;2.35;;
33716;SDS011;20046;50.746;7.072;2022-09-12T15:33:46;4.63;;;2.13;;
33716;SDS011;20046;50.746;7.072;2022-09-12T15:36:15;7.05;;;3.17;;
33716;SDS011;20046;50.746;7.072;2022-09-12T15:38:44;4.95;;;2.55;;
33716;SDS011;20046;50.746;7.072;2022-09-12T15:44:02;6.50;;;2.10;;
33716;SDS011;20046;50.746;7.072;2022-09-12T15:46:29;7.38;;;2.38;;
33716;SDS011;20046;50.746;7.072;2022-09-12T15:48:54;2.83;;;2.10;;
33716;SDS011;20046;50.746;7.072;2022-09-12T15:51:20;5.30;;;2.38;;
33716;SDS011;20046;50.746;7.072;2022-09-12T15:53:47;3.28;;;1.98;;
33716;SDS011;20046;50.746;7.072;2022-09-12T15:56:14;2.85;;;2.03;;
33716;SDS011;20046;50.746;7.072;2022-09-12T15:58:41;5.57;;;2.40;;
33716;SDS011;20046;50.746;7.072;2022-09-12T16:01:08;3.85;;;1.83;;
33716;SDS011;20046;50.746;7.072;2022-09-12T16:03:38;2.03;;;1.67;;
33716;SDS011;20046;50.746;7.072;2022-09-12T16:06:04;2.80;;;1.80;;
33716;SDS011;20046;50.746;7.072;2022-09-12T16:08:31;4.32;;;2.00;;
33716;SDS011;20046;50.746;7.072;2022-09-12T16:10:59;2.20;;;1.80;;
33716;SDS011;20046;50.746;7.072;2022-09-12T16:13:32;3.80;;;2.10;;
33716;SDS011;20046;50.746;7.072;2022-09-12T16:15:58;2.90;;;2.22;;
33716;SDS011;20046;50.746;7.072;2022-09-12T16:18:25;1.58;;;1.48;;
33716;SDS011;20046;50.746;7.072;2022-09-12T16:20:55;2.75;;;1.95;;
33716;SDS011;20046;50.746;7.072;2022-09-12T16:23:21;2.38;;;1.75;;
33716;SDS011;20046;50.746;7.072;2022-09-12T16:26:01;2.95;;;2.00;;
33716;SDS011;20046;50.746;7.072;2022-09-12T16:28:28;3.42;;;1.60;;
33716;SDS011;20046;50.746;7.072;2022-09-12T16:30:58;11.07;;;2.10;;
33716;SDS011;20046;50.746;7.072;2022-09-12T16:33:25;6.15;;;2.05;;
33716;SDS011;20046;50.746;7.072;2022-09-12T16:35:51;3.58;;;2.35;;
33716;SDS011;20046;50.746;7.072;2022-09-12T16:38:22;3.67;;;1.83;;
33716;SDS011;20046;50.746;7.072;2022-09-12T16:40:47;5.57;;;1.50;;
33716;SDS011;20046;50.746;7.072;2022-09-12T16:43:13;3.00;;;2.00;;
33716;SDS011;20046;50.746;7.072;2022-09-12T16:45:41;2.80;;;1.55;;
33716;SDS011;20046;50.746;7.072;2022-09-12T16:48:08;1.60;;;1.40;;
33716;SDS011;20046;50.746;7.072;2022-09-12T16:50:33;3.53;;;1.80;;
33716;SDS011;20046;50.746;7.072;2022-09-12T16:52:59;6.70;;;1.80;;
33716;SDS011;20046;50.746;7.072;2022-09-12T16:55:24;3.25;;;1.77;;
33716;SDS011;20046;50.746;7.072;2022-09-12T16:57:52;6.57;;;2.08;;
33716;SDS011;20046;50.746;7.072;2022-09-12T17:00:18;2.97;;;1.80;;
33716;SDS011;20046;50.746;7.072;2022-09-12T17:02:43;3.75;;;2.20;;
33716;SDS011;20046;50.746;7.072;2022-09-12T17:05:09;2.88;;;1.70;;
33716;SDS011;20046;50.746;7.072;2022-09-12T17:07:35;4.10;;;2.00;;
33716;SDS011;20046;50.746;7.072;2022-09-12T17:10:00;5.80;;;2.15;;
33716;SDS011;20046;50.746;7.072;2022-09-12T17:12:26;1.80;;;1.58;;
33716;SDS011;20046;50.746;7.072;2022-09-12T17:14:51;7.68;;;6.25;;
33716;SDS011;20046;50.746;7.072;2022-09-12T17:17:17;49.67;;;33.78;;
33716;SDS011;20046;50.746;7.072;2022-09-12T17:19:43;6.95;;;4.45;;
33716;SDS011;20046;50.746;7.072;2022-09-12T17:22:08;5.10;;;2.50;;
33716;SDS011;20046;50.746;7.072;2022-09-12T17:24:34;3.85;;;2.10;;
33716;SDS011;20046;50.746;7.072;2022-09-12T17:27:00;4.20;;;1.77;;
33716;SDS011;20046;50.746;7.072;2022-09-12T17:29:25;5.15;;;1.83;;
33716;SDS011;20046;50.746;7.072;2022-09-12T17:31:51;3.50;;;2.22;;